createdAt,value
2023-04-01T07:19:27.565Z,9.10
2023-04-01T07:22:17.122Z,9.10
2023-04-01T07:25:13.534Z,9.20
2023-04-01T07:30:42.029Z,9.10
2023-04-01T07:33:17.082Z,9.20
2023-04-01T07:36:37.676Z,9.20
2023-04-01T07:39:18.520Z,9.20
2023-04-01T07:42:22.002Z,9.20
2023-04-01T07:45:00.039Z,9.20
2023-04-01T08:16:56.850Z,9.00
2023-04-01T08:21:56.957Z,9.00
2023-04-01T08:24:44.469Z,9.00
2023-04-01T08:27:23.954Z,9.10
2023-04-01T08:30:00.842Z,9.10
2023-04-01T08:32:36.938Z,9.20
2023-04-01T08:35:18.208Z,9.20
2023-04-01T08:37:52.939Z,9.20
2023-04-01T08:40:58.026Z,9.30
2023-04-01T08:43:45.144Z,9.30
2023-04-01T08:46:30.928Z,9.30
2023-04-01T08:49:07.875Z,9.30
2023-04-01T08:52:11.926Z,9.20
2023-04-01T08:55:17.161Z,9.30
2023-04-01T08:58:23.595Z,9.20
2023-04-01T09:01:17.244Z,9.20
2023-04-01T09:04:21.732Z,9.20
2023-04-01T09:07:03.116Z,9.20
2023-04-01T09:10:03.165Z,9.20
2023-04-01T09:13:02.528Z,9.20
2023-04-01T09:16:07.170Z,9.20
2023-04-01T09:19:25.638Z,9.20
2023-04-01T09:22:19.709Z,9.20
2023-04-01T09:25:24.011Z,9.20
2023-04-01T09:28:00.305Z,9.20
2023-04-01T09:30:57.953Z,9.20
2023-04-01T09:33:56.571Z,9.30
2023-04-01T09:36:46.771Z,9.30
2023-04-01T09:39:39.688Z,9.40
2023-04-01T09:42:44.052Z,9.50
2023-04-01T09:45:43.418Z,9.60
2023-04-01T09:48:24.092Z,9.70
2023-04-01T09:51:03.449Z,9.80
2023-04-01T09:53:47.053Z,10.00
2023-04-01T09:56:49.049Z,10.20
2023-04-01T09:59:56.009Z,10.40
2023-04-01T10:03:18.764Z,10.30
2023-04-01T10:06:18.279Z,10.20
2023-04-01T10:09:10.366Z,10.20
2023-04-01T10:12:13.965Z,10.10
2023-04-01T10:15:13.448Z,10.20
2023-04-01T10:18:15.922Z,10.30
2023-04-01T10:21:20.166Z,10.40
2023-04-01T10:24:22.090Z,10.40
2023-04-01T10:27:38.416Z,10.50
2023-04-01T10:30:42.656Z,10.50
2023-04-01T10:34:04.847Z,10.60
2023-04-01T10:36:55.659Z,10.60
2023-04-01T10:40:01.170Z,10.50
2023-04-01T10:43:24.051Z,10.40
2023-04-01T10:46:46.401Z,10.50
2023-04-01T10:49:51.397Z,10.60
2023-04-01T10:52:48.852Z,10.70
2023-04-01T10:55:59.693Z,10.80
2023-04-01T10:59:18.483Z,10.80
2023-04-01T11:02:53.983Z,10.70
2023-04-01T11:06:19.556Z,10.50
2023-04-01T11:09:25.558Z,10.50
2023-04-01T11:12:25.564Z,10.60
2023-04-01T11:15:32.104Z,10.60
2023-04-01T11:18:38.920Z,10.70
2023-04-01T11:21:41.639Z,10.80
2023-04-01T11:24:43.446Z,10.60
2023-04-01T11:27:44.839Z,10.30
2023-04-01T11:30:29.484Z,10.20
2023-04-01T11:33:06.631Z,10.10
2023-04-01T11:36:02.158Z,10.10
2023-04-01T11:38:57.878Z,10.10
2023-04-01T11:41:52.390Z,10.10
2023-04-01T11:44:47.968Z,10.30
2023-04-01T11:47:47.925Z,10.50
2023-04-01T11:50:28.718Z,10.60
2023-04-01T11:53:07.276Z,10.60
2023-04-01T11:55:50.699Z,10.60
2023-04-01T11:58:47.840Z,10.50
2023-04-01T12:01:26.879Z,10.30
2023-04-01T12:04:35.435Z,10.20
2023-04-01T12:07:15.846Z,10.20
2023-04-01T12:09:55.217Z,10.10
2023-04-01T12:12:35.008Z,10.10
2023-04-01T12:15:21.839Z,10.10
2023-04-01T12:17:59.281Z,10.00
2023-04-01T12:20:41.723Z,10.00
2023-04-01T12:23:26.611Z,10.00
2023-04-01T12:26:25.000Z,9.90
2023-04-01T12:29:11.215Z,9.90
2023-04-01T12:31:50.714Z,9.90
2023-04-01T12:34:54.136Z,9.80
2023-04-01T12:37:36.251Z,9.90
2023-04-01T12:40:27.042Z,10.00
2023-04-01T12:43:10.693Z,10.00
2023-04-01T12:45:45.067Z,10.00
2023-04-01T12:48:36.524Z,10.10
2023-04-01T12:51:31.647Z,10.10
2023-04-01T12:54:36.638Z,10.10
2023-04-01T12:57:22.963Z,10.10
2023-04-01T13:00:15.315Z,10.10
2023-04-01T13:03:00.298Z,10.10
2023-04-01T13:06:10.446Z,10.00
2023-04-01T13:08:48.166Z,9.90
2023-04-01T13:11:26.444Z,10.00
2023-04-01T13:14:31.163Z,9.90
2023-04-01T13:17:06.708Z,9.90
2023-04-01T13:19:46.455Z,9.80
2023-04-01T13:22:28.077Z,9.80
2023-04-01T13:25:03.883Z,9.80
2023-04-01T13:27:39.643Z,9.80
2023-04-01T13:30:26.567Z,9.80
2023-04-01T13:33:04.240Z,9.90
2023-04-01T13:35:43.857Z,10.00
2023-04-01T13:38:40.878Z,10.00
2023-04-01T13:41:23.646Z,10.00
2023-04-01T13:44:01.525Z,10.00
2023-04-01T13:46:51.562Z,10.00
2023-04-01T13:49:42.323Z,10.00
2023-04-01T13:52:59.026Z,10.00
2023-04-01T13:55:56.156Z,10.10
2023-04-01T13:59:08.320Z,10.10
2023-04-01T14:01:43.963Z,10.10
2023-04-01T14:04:42.555Z,10.10
2023-04-01T14:07:19.479Z,10.10
2023-04-01T14:10:01.694Z,10.10
2023-04-01T14:12:39.086Z,10.10
2023-04-01T14:15:34.993Z,10.20
2023-04-01T14:18:18.237Z,10.20
2023-04-01T14:20:57.125Z,10.20
2023-04-01T14:23:59.612Z,10.30
2023-04-01T14:27:04.077Z,10.40
2023-04-01T14:29:41.877Z,10.40
2023-04-01T14:32:18.320Z,10.30
2023-04-01T14:35:01.544Z,10.30
2023-04-01T14:37:59.402Z,10.30
2023-04-01T14:40:30.520Z,10.30
2023-04-01T14:43:17.346Z,10.30
2023-04-01T14:46:11.897Z,10.30
2023-04-01T14:48:53.636Z,10.40
2023-04-01T14:51:39.201Z,10.40
2023-04-01T14:54:18.157Z,10.40
2023-04-01T14:56:50.714Z,10.30
2023-04-01T14:59:30.118Z,10.30
2023-04-01T15:02:05.594Z,10.20
2023-04-01T15:04:52.702Z,10.20
2023-04-01T15:07:59.015Z,10.10
2023-04-01T15:10:58.794Z,10.10
2023-04-01T15:13:50.613Z,10.10
2023-04-01T15:16:25.478Z,10.00
2023-04-01T15:19:06.005Z,10.10
2023-04-01T15:21:53.364Z,10.00
2023-04-01T15:24:26.361Z,10.00
2023-04-01T15:27:18.437Z,10.00
2023-04-01T15:30:15.891Z,10.00
2023-04-01T15:32:54.450Z,10.00
2023-04-01T15:35:37.661Z,10.10
2023-04-01T15:38:17.731Z,10.10
2023-04-01T15:40:56.204Z,10.00
2023-04-01T15:43:36.361Z,10.00
2023-04-01T15:46:20.884Z,10.00
2023-04-01T15:49:05.210Z,10.10
2023-04-01T15:51:51.521Z,10.10
2023-04-01T15:54:42.999Z,10.20
2023-04-01T15:57:26.357Z,10.20
2023-04-01T16:00:12.293Z,10.30
2023-04-01T16:02:51.196Z,10.30
2023-04-01T16:05:43.470Z,10.30
2023-04-01T16:08:43.008Z,10.40
2023-04-01T16:11:27.092Z,10.40
2023-04-01T16:14:10.119Z,10.40
2023-04-01T16:16:53.486Z,10.30
2023-04-01T16:19:39.050Z,10.20
2023-04-01T16:22:15.366Z,10.20
2023-04-01T16:24:48.585Z,10.20
2023-04-01T16:27:27.406Z,10.20
2023-04-01T16:30:03.644Z,10.30
2023-04-01T16:32:40.400Z,10.30
2023-04-01T16:35:38.839Z,10.20
2023-04-01T16:38:16.160Z,10.10
2023-04-01T16:40:53.174Z,10.10
2023-04-01T16:43:30.691Z,10.00
2023-04-01T16:46:34.370Z,10.10
2023-04-01T16:49:12.050Z,10.00
2023-04-01T16:51:48.734Z,9.90
2023-04-01T16:54:29.843Z,9.80
2023-04-01T16:57:07.447Z,9.90
2023-04-01T16:59:40.834Z,10.00
2023-04-01T17:02:16.372Z,9.80
2023-04-01T17:04:48.139Z,9.90
2023-04-01T17:07:38.322Z,9.70
2023-04-01T17:10:27.936Z,9.60
2023-04-01T17:13:16.892Z,9.50
2023-04-01T17:15:55.209Z,9.40
2023-04-01T17:18:30.446Z,9.40
2023-04-01T17:21:02.191Z,9.30
2023-04-01T17:23:37.405Z,9.20
2023-04-01T17:26:10.011Z,9.20
2023-04-01T17:28:49.327Z,9.20
2023-04-01T17:31:34.383Z,9.20
2023-04-01T17:34:35.804Z,9.10
2023-04-01T17:37:25.120Z,9.00
2023-04-01T17:40:04.148Z,9.00
2023-04-01T17:42:43.726Z,9.00
2023-04-01T17:45:24.247Z,9.00
2023-04-01T17:48:06.305Z,8.90
2023-04-01T17:50:53.729Z,9.00
2023-04-01T17:53:34.163Z,9.10
2023-04-01T17:56:11.720Z,9.10
2023-04-01T17:58:48.822Z,9.10
2023-04-01T18:01:31.103Z,8.90
2023-04-01T18:04:29.736Z,8.90
2023-04-01T18:07:12.844Z,8.70
2023-04-01T18:09:53.798Z,8.60
2023-04-01T18:12:34.166Z,8.50
2023-04-01T18:15:14.103Z,8.50
2023-04-01T18:17:59.340Z,8.50
2023-04-01T18:20:45.010Z,8.40
2023-04-01T18:23:17.580Z,8.40
2023-04-01T18:25:50.642Z,8.40
2023-04-01T18:28:29.966Z,8.50
2023-04-01T18:31:07.237Z,8.50
2023-04-01T18:33:45.576Z,8.50
2023-04-01T18:36:23.011Z,8.40
2023-04-01T18:38:55.755Z,8.50
2023-04-01T18:41:35.941Z,8.60
2023-04-01T18:44:26.357Z,8.60
2023-04-01T18:47:05.157Z,8.70
2023-04-01T18:49:45.842Z,8.60
2023-04-01T18:52:23.599Z,8.60
2023-04-01T18:55:31.101Z,8.60
2023-04-01T18:58:16.999Z,8.60
2023-04-01T19:00:50.396Z,8.70
2023-04-01T19:03:25.686Z,8.70
2023-04-01T19:05:55.371Z,8.60
2023-04-01T19:08:38.237Z,8.60
2023-04-01T19:11:12.836Z,8.50
2023-04-01T19:13:52.290Z,8.40
2023-04-01T19:16:31.395Z,8.50
2023-04-01T19:19:23.217Z,8.60
2023-04-01T19:22:00.677Z,8.70
2023-04-01T19:25:00.656Z,8.70
2023-04-01T19:27:37.756Z,8.60
2023-04-01T19:30:35.197Z,8.60
2023-04-01T19:33:21.318Z,8.60
2023-04-01T19:35:59.395Z,8.70
2023-04-01T19:38:36.328Z,8.80
2023-04-01T19:41:20.437Z,8.90
2023-04-01T19:44:02.407Z,9.00
2023-04-01T19:46:36.639Z,9.00
2023-04-01T19:49:16.635Z,9.00
2023-04-01T19:51:54.125Z,9.10
2023-04-01T19:54:33.197Z,9.10
2023-04-01T19:57:14.778Z,9.10
2023-04-01T19:59:52.244Z,9.00
2023-04-01T20:02:41.054Z,9.10
2023-04-01T20:05:33.053Z,9.00
2023-04-01T20:08:09.965Z,9.10
2023-04-01T20:10:45.721Z,9.00
2023-04-01T20:13:27.931Z,9.00
2023-04-01T20:16:05.039Z,8.90
2023-04-01T20:18:47.888Z,8.90
2023-04-01T20:21:29.899Z,8.80
2023-04-01T20:24:02.598Z,8.70
2023-04-01T20:26:36.746Z,8.80
2023-04-01T20:29:44.517Z,8.80
2023-04-01T20:32:28.657Z,8.70
2023-04-01T20:35:28.755Z,8.70
2023-04-01T20:38:08.634Z,8.80
2023-04-01T20:40:40.007Z,8.80
2023-04-01T20:43:38.276Z,8.80
2023-04-01T20:46:16.800Z,8.80
2023-04-01T20:49:28.332Z,8.80
2023-04-01T20:52:03.368Z,8.70
2023-04-01T20:54:55.117Z,8.60
2023-04-01T20:57:34.251Z,8.40
2023-04-01T21:00:26.919Z,8.40
2023-04-01T21:03:17.199Z,8.40
2023-04-01T21:06:21.965Z,8.40
2023-04-01T21:09:17.373Z,8.40
2023-04-01T21:11:56.118Z,8.50
2023-04-01T21:15:01.655Z,8.60
2023-04-01T21:17:44.306Z,8.70
2023-04-01T21:20:36.552Z,8.70
2023-04-01T21:23:34.483Z,8.60
2023-04-01T21:26:13.406Z,8.60
2023-04-01T21:28:57.532Z,8.70
2023-04-01T21:31:44.342Z,8.90
2023-04-01T21:34:40.291Z,8.90
2023-04-01T21:37:45.567Z,8.90
2023-04-01T21:40:54.596Z,8.90
2023-04-01T21:43:55.784Z,8.80
2023-04-01T21:46:55.205Z,8.90
2023-04-01T21:50:08.954Z,8.90
2023-04-01T21:53:14.715Z,8.80
2023-04-01T21:56:32.356Z,8.70
2023-04-01T21:59:40.435Z,8.70
2023-04-01T22:02:44.049Z,8.70
2023-04-01T22:05:18.879Z,8.60
2023-04-01T22:07:56.954Z,8.70
2023-04-01T22:10:35.004Z,8.60
2023-04-01T22:13:09.388Z,8.60
2023-04-01T22:16:02.198Z,8.60
2023-04-01T22:18:38.315Z,8.60
2023-04-01T22:21:15.244Z,8.50
2023-04-01T22:23:49.793Z,8.40
2023-04-01T22:26:25.520Z,8.70
2023-04-01T22:29:01.753Z,8.80
2023-04-01T22:31:35.510Z,8.70
2023-04-01T22:34:12.554Z,8.70
2023-04-01T22:36:53.692Z,8.60
2023-04-01T22:39:46.043Z,8.60
2023-04-01T22:42:31.241Z,8.60
2023-04-01T22:45:13.274Z,8.60
2023-04-01T22:47:51.038Z,8.50
2023-04-01T22:50:24.398Z,8.40
2023-04-01T22:53:02.719Z,8.50
2023-04-01T22:55:38.433Z,8.50
2023-04-01T22:58:28.679Z,8.50
2023-04-01T23:01:01.023Z,8.50
2023-04-01T23:03:32.754Z,8.40
2023-04-01T23:06:03.885Z,8.40
2023-04-01T23:09:05.339Z,8.40
2023-04-01T23:11:39.958Z,8.40
2023-04-01T23:14:39.482Z,8.40
2023-04-01T23:17:38.370Z,8.40
2023-04-01T23:20:18.423Z,8.40
2023-04-01T23:22:57.202Z,8.40
2023-04-01T23:25:38.581Z,8.40
2023-04-01T23:28:29.451Z,8.50
2023-04-01T23:30:58.547Z,8.50
2023-04-01T23:33:31.344Z,8.50
2023-04-01T23:36:06.502Z,8.60
2023-04-01T23:38:36.756Z,8.70
2023-04-01T23:41:07.363Z,8.80
2023-04-01T23:43:41.318Z,8.70
2023-04-01T23:46:10.821Z,8.70
2023-04-01T23:48:42.515Z,8.80
2023-04-01T23:51:19.199Z,8.90
2023-04-01T23:53:49.604Z,8.90
2023-04-01T23:56:20.315Z,8.80
2023-04-01T23:58:56.521Z,8.70
